Norden-Norddeich Airport

EDWS · 下萨克森, 德国

使用的METAR站距离机场88 km。
罗盘
风向 的 风向 的 风向 到 风向 110° Norden-Norddeich Airport 16/34
风: 10 kt, 3 beaufort

6 kt

8 kt
改变
0 ft 1.000 2.000 3.000 4.000 5.000
Cloud Cloud Cloud Cloud Cloud Cloud
BKN 500
Cloud Cloud Cloud Cloud Cloud Cloud Cloud Cloud
OVC 600
METAR EHHW 050025Z AUTO 11010KT 070V140 4200 BR BKN005/// OVC006/// 08/06 Q1013

METAR Norden-Norddeich Airport - EDWS/NOD

Norden-Norddeich Airport是,德国中的小机场。 该机场位于纬度53,63306和经度7,19028。 该机场有一条跑道: 16/34. 本场的ICAO机场代码为EDWS。 该机场的IATA代码为NOD。 机场在Amsterdam FIR中。

该航空气象观测是针对Buitengaats / BG-OHVS2 Helipad在2024年3月5日 01:25, 当地时间进行的。

机场观察

风向为110°,速度为10 kt。 风向在070°和140°之间变化。

可见度为4,2 km。

有碎云在500 ft的高度 和 乌云密布在600 ft的高度。 破损或更高的上限为500 ft。

当前天气为薄雾。 温度为8 °C,阵风为3 °C。 露点为6 °C,相对湿度为87%。 海平面上的气压为1013 hPa (QNH)。

白天

今天,太阳从07:08升起,在18:16降落。 这适用于Norden-Norddeich Airport,世界夏令时可能有所不同。 当地时间与世界标准时间之间的时差为+1 小时。 当前,没有夏令时有效。

公司介绍

我们没有关于这个机场的公司信息。

体会

到Vliegles.nl去找飞行课程,跳伞和其他飞行体验。 浏览页面,了解Norden-Norddeich Airport附近所有可用的活动。 你也可以使用搜索功能来寻找你所在地附近的特定飞行课程、跳伞或其他飞行体验。

跑道

Id 标题 侧风 逆风 侧风 %
16/34 160°-340° 8 kt 6 kt 77 %

逆风成分最大的方向会被突出显示,并用于横风计算。 这并不一定意味着这个方向在使用。

乌云

500 ft BKN 碎云
600 ft OVC 乌云密布

温度 & 天气

天气 薄雾
温度 8 °C
露点 6 °C
相对湿度 87%
风寒 3 °C
Kp-index 2 (0-9)

白天

日出
07:13 (5:17)
中午
12:47
日落
18:21

小工具

你想在你的网站上有一个关于Norden-Norddeich Airport的当前航空天气(METAR)的小部件吗?

显示HTML代码
?>